sensor_id;sensor_type;location;lat;lon;timestamp;pressure;altitude;pressure_sealevel;temperature;humidity
22181;BME280;11256;50.830;12.834;2023-03-18T00:04:51;97105.91;;;9.65;49.38
22181;BME280;11256;50.830;12.834;2023-03-18T00:09:52;97096.28;;;9.54;49.39
22181;BME280;11256;50.830;12.834;2023-03-18T00:14:52;97115.09;;;9.64;49.31
22181;BME280;11256;50.830;12.834;2023-03-18T00:19:52;97110.25;;;9.61;49.25
22181;BME280;11256;50.830;12.834;2023-03-18T00:24:54;97105.94;;;9.60;49.27
22181;BME280;11256;50.830;12.834;2023-03-18T00:29:54;97109.22;;;9.57;49.23
22181;BME280;11256;50.830;12.834;2023-03-18T00:34:55;97104.41;;;9.54;49.28
22181;BME280;11256;50.830;12.834;2023-03-18T00:40:00;97084.53;;;9.40;49.43
22181;BME280;11256;50.830;12.834;2023-03-18T00:45:07;97103.41;;;9.45;49.46
22181;BME280;11256;50.830;12.834;2023-03-18T00:50:10;97099.66;;;9.41;49.66
22181;BME280;11256;50.830;12.834;2023-03-18T00:55:10;97097.56;;;9.38;49.43
22181;BME280;11256;50.830;12.834;2023-03-18T01:00:11;97106.63;;;9.47;49.24
22181;BME280;11256;50.830;12.834;2023-03-18T01:05:12;97089.38;;;9.43;49.04
22181;BME280;11256;50.830;12.834;2023-03-18T01:10:15;97090.13;;;9.48;49.12
22181;BME280;11256;50.830;12.834;2023-03-18T01:15:17;97076.47;;;9.35;48.68
22181;BME280;11256;50.830;12.834;2023-03-18T01:20:19;97099.66;;;9.41;48.88
22181;BME280;11256;50.830;12.834;2023-03-18T01:25:23;97094.50;;;9.21;48.97
22181;BME280;11256;50.830;12.834;2023-03-18T01:30:26;97092.06;;;9.19;48.97
22181;BME280;11256;50.830;12.834;2023-03-18T01:35:30;97098.91;;;9.12;49.35
22181;BME280;11256;50.830;12.834;2023-03-18T01:40:34;97106.53;;;9.05;49.36
22181;BME280;11256;50.830;12.834;2023-03-18T01:45:36;97118.13;;;9.05;49.56
22181;BME280;11256;50.830;12.834;2023-03-18T01:50:37;97120.84;;;9.05;49.86
22181;BME280;11256;50.830;12.834;2023-03-18T01:55:39;97115.78;;;8.99;49.62
22181;BME280;11256;50.830;12.834;2023-03-18T02:00:42;97125.00;;;8.93;49.50
22181;BME280;11256;50.830;12.834;2023-03-18T02:05:43;97125.66;;;8.80;49.59
22181;BME280;11256;50.830;12.834;2023-03-18T02:10:44;97122.25;;;8.69;50.15
22181;BME280;11256;50.830;12.834;2023-03-18T02:15:58;97139.22;;;8.75;50.14
22181;BME280;11256;50.830;12.834;2023-03-18T02:21:30;97137.63;;;8.69;50.21
22181;BME280;11256;50.830;12.834;2023-03-18T02:26:47;97125.34;;;8.53;50.59
22181;BME280;11256;50.830;12.834;2023-03-18T02:31:54;97132.88;;;8.56;50.44
22181;BME280;11256;50.830;12.834;2023-03-18T02:36:56;97136.13;;;8.53;50.87
22181;BME280;11256;50.830;12.834;2023-03-18T02:41:57;97144.00;;;8.49;50.62
22181;BME280;11256;50.830;12.834;2023-03-18T02:47:00;97138.38;;;8.41;50.53
22181;BME280;11256;50.830;12.834;2023-03-18T02:52:02;97142.72;;;8.37;50.51
22181;BME280;11256;50.830;12.834;2023-03-18T02:57:03;97138.69;;;8.34;50.65
22181;BME280;11256;50.830;12.834;2023-03-18T03:02:03;97141.41;;;8.29;50.75
22181;BME280;11256;50.830;12.834;2023-03-18T03:07:04;97144.13;;;8.19;51.10
22181;BME280;11256;50.830;12.834;2023-03-18T03:12:19;97146.59;;;8.16;50.99
22181;BME280;11256;50.830;12.834;2023-03-18T03:17:24;97165.47;;;8.21;50.77
22181;BME280;11256;50.830;12.834;2023-03-18T03:22:25;97165.78;;;8.14;50.65
22181;BME280;11256;50.830;12.834;2023-03-18T03:27:27;97170.41;;;8.04;51.20
22181;BME280;11256;50.830;12.834;2023-03-18T03:32:27;97175.78;;;8.04;51.01
22181;BME280;11256;50.830;12.834;2023-03-18T03:37:28;97187.16;;;8.01;51.14
22181;BME280;11256;50.830;12.834;2023-03-18T03:42:28;97193.91;;;7.98;51.16
22181;BME280;11256;50.830;12.834;2023-03-18T03:47:29;97175.88;;;7.84;51.51
22181;BME280;11256;50.830;12.834;2023-03-18T03:52:30;97196.38;;;7.90;51.48
22181;BME280;11256;50.830;12.834;2023-03-18T03:57:30;97190.66;;;7.91;51.34
22181;BME280;11256;50.830;12.834;2023-03-18T04:02:30;97195.25;;;7.96;50.87
22181;BME280;11256;50.830;12.834;2023-03-18T04:07:33;97207.16;;;7.85;51.30
22181;BME280;11256;50.830;12.834;2023-03-18T04:12:34;97195.56;;;7.79;51.00
22181;BME280;11256;50.830;12.834;2023-03-18T04:17:35;97176.50;;;7.51;51.75
22181;BME280;11256;50.830;12.834;2023-03-18T04:22:36;97204.53;;;7.65;51.50
22181;BME280;11256;50.830;12.834;2023-03-18T04:27:40;97206.41;;;7.59;52.15
22181;BME280;11256;50.830;12.834;2023-03-18T04:32:43;97200.78;;;7.46;51.57
22181;BME280;11256;50.830;12.834;2023-03-18T04:37:43;97199.47;;;7.38;52.29
22181;BME280;11256;50.830;12.834;2023-03-18T04:42:46;97213.72;;;7.44;52.43
22181;BME280;11256;50.830;12.834;2023-03-18T04:47:48;97212.38;;;7.36;52.25
22181;BME280;11256;50.830;12.834;2023-03-18T04:52:49;97213.22;;;7.32;52.18
22181;BME280;11256;50.830;12.834;2023-03-18T04:57:55;97196.78;;;7.13;52.76
22181;BME280;11256;50.830;12.834;2023-03-18T05:02:57;97213.22;;;7.22;52.43
22181;BME280;11256;50.830;12.834;2023-03-18T05:08:00;97215.09;;;7.21;52.51
22181;BME280;11256;50.830;12.834;2023-03-18T05:13:01;97209.72;;;7.11;52.71
22181;BME280;11256;50.830;12.834;2023-03-18T05:18:06;97216.47;;;7.09;53.14
22181;BME280;11256;50.830;12.834;2023-03-18T05:23:07;97207.28;;;6.95;53.25
22181;BME280;11256;50.830;12.834;2023-03-18T05:28:17;97215.91;;;7.02;53.32
22181;BME280;11256;50.830;12.834;2023-03-18T05:33:25;97219.69;;;7.01;53.05
22181;BME280;11256;50.830;12.834;2023-03-18T05:38:28;97215.91;;;6.92;53.40
22181;BME280;11256;50.830;12.834;2023-03-18T05:43:29;97231.78;;;6.98;53.33
22181;BME280;11256;50.830;12.834;2023-03-18T05:48:32;97230.44;;;7.01;52.99
22181;BME280;11256;50.830;12.834;2023-03-18T05:53:37;97226.97;;;7.05;52.94
22181;BME280;11256;50.830;12.834;2023-03-18T05:58:48;97232.06;;;7.22;53.07
22181;BME280;11256;50.830;12.834;2023-03-18T06:03:59;97221.81;;;7.24;52.85
22181;BME280;11256;50.830;12.834;2023-03-18T06:09:00;97223.44;;;7.35;53.02
22181;BME280;11256;50.830;12.834;2023-03-18T06:14:01;97243.88;;;7.56;52.43
22181;BME280;11256;50.830;12.834;2023-03-18T06:19:04;97226.34;;;7.63;52.96
22181;BME280;11256;50.830;12.834;2023-03-18T06:24:06;97241.13;;;7.91;52.98
22181;BME280;11256;50.830;12.834;2023-03-18T06:29:08;97236.75;;;8.20;54.04
22181;BME280;11256;50.830;12.834;2023-03-18T06:34:10;97237.91;;;8.57;54.27
22181;BME280;11256;50.830;12.834;2023-03-18T06:39:12;97245.69;;;9.07;55.04
22181;BME280;11256;50.830;12.834;2023-03-18T06:44:14;97236.34;;;9.85;56.07
22181;BME280;11256;50.830;12.834;2023-03-18T06:49:14;97246.47;;;10.87;55.44
22181;BME280;11256;50.830;12.834;2023-03-18T06:54:21;97246.22;;;11.71;54.22
22181;BME280;11256;50.830;12.834;2023-03-18T06:59:22;97250.81;;;12.30;53.24
22181;BME280;11256;50.830;12.834;2023-03-18T07:04:24;97242.94;;;12.69;52.49
22181;BME280;11256;50.830;12.834;2023-03-18T07:09:30;97251.09;;;13.18;51.42
22181;BME280;11256;50.830;12.834;2023-03-18T07:14:33;97251.38;;;13.74;51.24
22181;BME280;11256;50.830;12.834;2023-03-18T07:19:34;97258.28;;;14.32;50.71
22181;BME280;11256;50.830;12.834;2023-03-18T07:24:34;97240.59;;;14.77;50.15
22181;BME280;11256;50.830;12.834;2023-03-18T07:29:35;97250.34;;;15.34;49.49
22181;BME280;11256;50.830;12.834;2023-03-18T07:34:35;97250.16;;;15.65;48.24
22181;BME280;11256;50.830;12.834;2023-03-18T07:39:36;97251.91;;;15.69;47.65
22181;BME280;11256;50.830;12.834;2023-03-18T07:44:36;97268.28;;;15.86;47.23
22181;BME280;11256;50.830;12.834;2023-03-18T07:49:36;97260.41;;;15.85;46.88
22181;BME280;11256;50.830;12.834;2023-03-18T07:54:37;97280.28;;;16.11;46.40
22181;BME280;11256;50.830;12.834;2023-03-18T07:59:37;97271.16;;;16.53;46.52
22181;BME280;11256;50.830;12.834;2023-03-18T08:04:38;97283.47;;;17.05;45.71
22181;BME280;11256;50.830;12.834;2023-03-18T08:09:38;97268.00;;;17.29;45.73
22181;BME280;11256;50.830;12.834;2023-03-18T08:14:38;97283.88;;;17.97;45.00
22181;BME280;11256;50.830;12.834;2023-03-18T08:19:39;97275.59;;;18.30;44.51
22181;BME280;11256;50.830;12.834;2023-03-18T08:24:39;97287.81;;;18.89;44.10
22181;BME280;11256;50.830;12.834;2023-03-18T08:29:40;97288.03;;;19.44;42.66
22181;BME280;11256;50.830;12.834;2023-03-18T08:34:40;97298.41;;;19.62;42.83
22181;BME280;11256;50.830;12.834;2023-03-18T08:39:40;97294.81;;;20.13;41.42
22181;BME280;11256;50.830;12.834;2023-03-18T08:44:43;97281.66;;;20.50;40.72
22181;BME280;11256;50.830;12.834;2023-03-18T08:49:43;97307.53;;;21.07;39.66
22181;BME280;11256;50.830;12.834;2023-03-18T08:54:44;97301.19;;;21.72;39.71
22181;BME280;11256;50.830;12.834;2023-03-18T08:59:45;97305.34;;;22.01;39.32
22181;BME280;11256;50.830;12.834;2023-03-18T09:04:45;97288.19;;;22.11;38.55
22181;BME280;11256;50.830;12.834;2023-03-18T09:09:47;97310.81;;;22.58;38.96
22181;BME280;11256;50.830;12.834;2023-03-18T09:14:47;97301.44;;;23.07;38.57
22181;BME280;11256;50.830;12.834;2023-03-18T09:19:48;97291.53;;;23.29;37.03
22181;BME280;11256;50.830;12.834;2023-03-18T09:24:48;97286.22;;;23.43;36.58
22181;BME280;11256;50.830;12.834;2023-03-18T09:29:48;97297.22;;;23.95;37.31
22181;BME280;11256;50.830;12.834;2023-03-18T09:34:50;97300.97;;;23.50;36.70
22181;BME280;11256;50.830;12.834;2023-03-18T09:39:50;97294.06;;;23.67;36.95
22181;BME280;11256;50.830;12.834;2023-03-18T09:44:55;97309.19;;;23.47;37.17
22181;BME280;11256;50.830;12.834;2023-03-18T09:50:08;97303.00;;;23.57;37.20
22181;BME280;11256;50.830;12.834;2023-03-18T09:55:49;97304.06;;;23.23;37.16
22181;BME280;11256;50.830;12.834;2023-03-18T10:00:56;97311.13;;;22.98;37.59
22181;BME280;11256;50.830;12.834;2023-03-18T10:06:05;97309.41;;;22.67;37.94
22181;BME280;11256;50.830;12.834;2023-03-18T10:11:34;97325.38;;;22.36;38.18
22181;BME280;11256;50.830;12.834;2023-03-18T10:16:47;97318.03;;;21.86;38.71
22181;BME280;11256;50.830;12.834;2023-03-18T10:22:18;97329.38;;;21.66;39.13
22181;BME280;11256;50.830;12.834;2023-03-18T10:27:37;97321.44;;;21.45;39.84
22181;BME280;11256;50.830;12.834;2023-03-18T10:32:52;97317.66;;;21.19;40.05
22181;BME280;11256;50.830;12.834;2023-03-18T10:38:01;97302.25;;;21.18;40.48
22181;BME280;11256;50.830;12.834;2023-03-18T10:43:11;97314.91;;;21.19;40.64
22181;BME280;11256;50.830;12.834;2023-03-18T10:48:20;97323.63;;;21.21;41.01
22181;BME280;11256;50.830;12.834;2023-03-18T10:53:28;97319.97;;;21.17;41.14
22181;BME280;11256;50.830;12.834;2023-03-18T10:58:30;97331.25;;;21.27;42.34
22181;BME280;11256;50.830;12.834;2023-03-18T11:03:34;97310.44;;;21.30;41.74
22181;BME280;11256;50.830;12.834;2023-03-18T11:08:35;97327.22;;;21.40;42.88
22181;BME280;11256;50.830;12.834;2023-03-18T11:13:36;97322.69;;;21.48;42.36
22181;BME280;11256;50.830;12.834;2023-03-18T11:18:37;97322.53;;;21.75;42.43
22181;BME280;11256;50.830;12.834;2023-03-18T11:23:38;97327.34;;;21.97;42.55
22181;BME280;11256;50.830;12.834;2023-03-18T11:29:04;97321.91;;;22.01;42.64
22181;BME280;11256;50.830;12.834;2023-03-18T11:34:16;97314.34;;;21.98;42.88
22181;BME280;11256;50.830;12.834;2023-03-18T11:39:17;97312.00;;;22.00;42.03
22181;BME280;11256;50.830;12.834;2023-03-18T11:44:24;97308.09;;;22.01;42.76
22181;BME280;11256;50.830;12.834;2023-03-18T11:49:27;97311.66;;;21.82;42.58
22181;BME280;11256;50.830;12.834;2023-03-18T11:54:57;97293.34;;;21.74;42.85
22181;BME280;11256;50.830;12.834;2023-03-18T12:05:42;97318.53;;;21.73;42.67
22181;BME280;11256;50.830;12.834;2023-03-18T12:16:10;97317.00;;;21.41;43.29
22181;BME280;11256;50.830;12.834;2023-03-18T12:26:39;97296.50;;;21.07;43.32
22181;BME280;11256;50.830;12.834;2023-03-18T12:42:37;97306.66;;;21.19;44.21
22181;BME280;11256;50.830;12.834;2023-03-18T12:47:47;97308.50;;;21.15;44.50
22181;BME280;11256;50.830;12.834;2023-03-18T12:52:58;97295.84;;;21.29;44.50
22181;BME280;11256;50.830;12.834;2023-03-18T12:58:06;97294.06;;;21.37;45.44
22181;BME280;11256;50.830;12.834;2023-03-18T13:08:29;97287.19;;;21.46;45.54
22181;BME280;11256;50.830;12.834;2023-03-18T13:13:36;97277.53;;;21.56;46.32
22181;BME280;11256;50.830;12.834;2023-03-18T13:18:45;97269.59;;;21.70;46.83
22181;BME280;11256;50.830;12.834;2023-03-18T13:24:11;97280.34;;;21.94;47.28
22181;BME280;11256;50.830;12.834;2023-03-18T13:29:22;97280.41;;;22.16;47.65
22181;BME280;11256;50.830;12.834;2023-03-18T13:34:38;97282.16;;;22.66;46.91
22181;BME280;11256;50.830;12.834;2023-03-18T13:40:17;97276.59;;;23.11;46.16
22181;BME280;11256;50.830;12.834;2023-03-18T13:45:31;97277.19;;;22.75;45.15
22181;BME280;11256;50.830;12.834;2023-03-18T13:50:35;97270.53;;;23.02;46.39
22181;BME280;11256;50.830;12.834;2023-03-18T13:55:51;97253.06;;;22.72;43.62
22181;BME280;11256;50.830;12.834;2023-03-18T14:06:21;97260.91;;;23.44;46.42
22181;BME280;11256;50.830;12.834;2023-03-18T14:21:29;97239.81;;;23.59;46.40
22181;BME280;11256;50.830;12.834;2023-03-18T14:26:30;97245.59;;;24.46;44.49
22181;BME280;11256;50.830;12.834;2023-03-18T14:41:56;97248.72;;;24.41;43.80
22181;BME280;11256;50.830;12.834;2023-03-18T14:46:59;97230.91;;;24.85;41.34
22181;BME280;11256;50.830;12.834;2023-03-18T14:52:06;97232.44;;;24.76;41.93
22181;BME280;11256;50.830;12.834;2023-03-18T14:57:11;97228.63;;;24.94;41.75
22181;BME280;11256;50.830;12.834;2023-03-18T15:02:21;97247.47;;;24.75;45.01
22181;BME280;11256;50.830;12.834;2023-03-18T15:07:34;97240.59;;;25.05;42.80
22181;BME280;11256;50.830;12.834;2023-03-18T15:12:35;97228.59;;;24.91;44.57
22181;BME280;11256;50.830;12.834;2023-03-18T15:17:36;97227.97;;;25.15;43.71
22181;BME280;11256;50.830;12.834;2023-03-18T15:22:37;97243.84;;;25.18;42.72
22181;BME280;11256;50.830;12.834;2023-03-18T15:27:38;97244.63;;;25.15;41.34
22181;BME280;11256;50.830;12.834;2023-03-18T15:32:47;97243.34;;;25.02;42.63
22181;BME280;11256;50.830;12.834;2023-03-18T15:38:13;97242.50;;;24.98;43.27
22181;BME280;11256;50.830;12.834;2023-03-18T15:48:42;97246.00;;;24.88;42.98
22181;BME280;11256;50.830;12.834;2023-03-18T15:53:43;97241.13;;;24.74;43.52
22181;BME280;11256;50.830;12.834;2023-03-18T15:59:02;97243.41;;;24.62;43.75
22181;BME280;11256;50.830;12.834;2023-03-18T16:04:06;97237.72;;;24.51;42.27
22181;BME280;11256;50.830;12.834;2023-03-18T16:09:15;97237.63;;;24.41;43.00
22181;BME280;11256;50.830;12.834;2023-03-18T16:14:22;97244.69;;;24.35;43.72
22181;BME280;11256;50.830;12.834;2023-03-18T16:19:24;97246.28;;;24.36;44.11
22181;BME280;11256;50.830;12.834;2023-03-18T16:24:27;97262.56;;;24.41;43.92
22181;BME280;11256;50.830;12.834;2023-03-18T16:29:32;97254.16;;;24.34;44.20
22181;BME280;11256;50.830;12.834;2023-03-18T16:34:35;97257.97;;;24.19;44.14
22181;BME280;11256;50.830;12.834;2023-03-18T16:39:36;97261.97;;;23.88;40.84
22181;BME280;11256;50.830;12.834;2023-03-18T16:44:37;97264.19;;;23.50;40.78
22181;BME280;11256;50.830;12.834;2023-03-18T16:49:37;97271.28;;;22.99;40.61
22181;BME280;11256;50.830;12.834;2023-03-18T16:54:37;97258.38;;;22.39;39.13
22181;BME280;11256;50.830;12.834;2023-03-18T16:59:47;97267.31;;;22.13;42.47
22181;BME280;11256;50.830;12.834;2023-03-18T17:04:48;97292.63;;;21.96;42.89
22181;BME280;11256;50.830;12.834;2023-03-18T17:09:49;97296.09;;;21.74;41.90
22181;BME280;11256;50.830;12.834;2023-03-18T17:14:51;97294.84;;;21.37;42.22
22181;BME280;11256;50.830;12.834;2023-03-18T17:19:53;97299.69;;;21.25;43.89
22181;BME280;11256;50.830;12.834;2023-03-18T17:24:53;97304.59;;;21.16;44.47
22181;BME280;11256;50.830;12.834;2023-03-18T17:29:53;97312.41;;;20.83;42.09
22181;BME280;11256;50.830;12.834;2023-03-18T17:34:54;97281.56;;;20.62;44.46
22181;BME280;11256;50.830;12.834;2023-03-18T17:39:55;97307.94;;;20.63;44.61
22181;BME280;11256;50.830;12.834;2023-03-18T17:45:00;97305.59;;;20.34;43.84
22181;BME280;11256;50.830;12.834;2023-03-18T17:50:02;97324.38;;;20.16;43.80
22181;BME280;11256;50.830;12.834;2023-03-18T17:55:15;97328.22;;;19.88;42.90
22181;BME280;11256;50.830;12.834;2023-03-18T18:00:19;97328.75;;;19.66;44.44
22181;BME280;11256;50.830;12.834;2023-03-18T18:05:23;97318.28;;;19.32;42.75
22181;BME280;11256;50.830;12.834;2023-03-18T18:10:24;97327.91;;;19.02;43.88
22181;BME280;11256;50.830;12.834;2023-03-18T18:15:25;97304.09;;;18.82;44.68
22181;BME280;11256;50.830;12.834;2023-03-18T18:20:26;97329.25;;;18.84;45.14
22181;BME280;11256;50.830;12.834;2023-03-18T18:25:27;97317.56;;;18.63;45.00
22181;BME280;11256;50.830;12.834;2023-03-18T18:30:29;97326.25;;;18.53;45.12
22181;BME280;11256;50.830;12.834;2023-03-18T18:35:31;97323.00;;;18.39;45.19
22181;BME280;11256;50.830;12.834;2023-03-18T18:40:31;97302.44;;;18.12;45.46
22181;BME280;11256;50.830;12.834;2023-03-18T18:45:32;97313.69;;;17.99;45.41
22181;BME280;11256;50.830;12.834;2023-03-18T18:50:33;97329.91;;;17.92;45.45
22181;BME280;11256;50.830;12.834;2023-03-18T18:55:34;97312.66;;;17.71;45.30
22181;BME280;11256;50.830;12.834;2023-03-18T19:00:34;97330.91;;;17.67;45.28
22181;BME280;11256;50.830;12.834;2023-03-18T19:05:36;97323.47;;;17.47;45.40
22181;BME280;11256;50.830;12.834;2023-03-18T19:10:37;97341.91;;;17.38;45.60
22181;BME280;11256;50.830;12.834;2023-03-18T19:15:37;97340.19;;;17.25;45.63
22181;BME280;11256;50.830;12.834;2023-03-18T19:20:37;97324.03;;;17.03;45.63
22181;BME280;11256;50.830;12.834;2023-03-18T19:25:38;97334.72;;;16.96;45.94
22181;BME280;11256;50.830;12.834;2023-03-18T19:30:38;97341.03;;;16.88;45.87
22181;BME280;11256;50.830;12.834;2023-03-18T19:35:38;97336.13;;;16.73;46.13
22181;BME280;11256;50.830;12.834;2023-03-18T19:40:40;97349.97;;;16.68;46.08
22181;BME280;11256;50.830;12.834;2023-03-18T19:45:42;97348.72;;;16.57;46.19
22181;BME280;11256;50.830;12.834;2023-03-18T19:50:44;97345.38;;;16.43;46.50
22181;BME280;11256;50.830;12.834;2023-03-18T19:55:46;97329.94;;;16.30;46.53
22181;BME280;11256;50.830;12.834;2023-03-18T20:00:46;97354.56;;;16.30;46.29
22181;BME280;11256;50.830;12.834;2023-03-18T20:05:47;97341.22;;;16.20;46.54
22181;BME280;11256;50.830;12.834;2023-03-18T20:10:47;97355.38;;;16.13;46.48
22181;BME280;11256;50.830;12.834;2023-03-18T20:15:48;97349.16;;;15.96;46.64
22181;BME280;11256;50.830;12.834;2023-03-18T20:20:50;97350.91;;;15.92;46.76
22181;BME280;11256;50.830;12.834;2023-03-18T20:25:51;97361.69;;;15.80;46.79
22181;BME280;11256;50.830;12.834;2023-03-18T20:30:52;97366.81;;;15.73;46.94
22181;BME280;11256;50.830;12.834;2023-03-18T20:35:55;97356.19;;;15.63;46.87
22181;BME280;11256;50.830;12.834;2023-03-18T20:40:56;97347.84;;;15.51;46.95
22181;BME280;11256;50.830;12.834;2023-03-18T20:45:57;97337.53;;;15.31;47.10
22181;BME280;11256;50.830;12.834;2023-03-18T20:50:58;97350.38;;;15.30;47.09
22181;BME280;11256;50.830;12.834;2023-03-18T20:55:58;97349.06;;;15.19;47.36
22181;BME280;11256;50.830;12.834;2023-03-18T21:00:58;97358.34;;;15.10;47.25
22181;BME280;11256;50.830;12.834;2023-03-18T21:06:01;97369.56;;;15.00;47.40
22181;BME280;11256;50.830;12.834;2023-03-18T21:11:02;97350.88;;;14.85;47.54
22181;BME280;11256;50.830;12.834;2023-03-18T21:16:11;97369.13;;;14.76;47.83
22181;BME280;11256;50.830;12.834;2023-03-18T21:21:30;97369.44;;;14.66;47.81
22181;BME280;11256;50.830;12.834;2023-03-18T21:26:31;97371.91;;;14.54;48.03
22181;BME280;11256;50.830;12.834;2023-03-18T21:31:32;97370.44;;;14.48;47.94
22181;BME280;11256;50.830;12.834;2023-03-18T21:36:32;97372.34;;;14.39;48.16
22181;BME280;11256;50.830;12.834;2023-03-18T21:41:33;97355.38;;;14.20;48.21
22181;BME280;11256;50.830;12.834;2023-03-18T21:46:33;97367.09;;;14.20;48.39
22181;BME280;11256;50.830;12.834;2023-03-18T21:51:33;97358.81;;;14.12;48.47
22181;BME280;11256;50.830;12.834;2023-03-18T21:56:34;97349.41;;;13.96;48.59
22181;BME280;11256;50.830;12.834;2023-03-18T22:01:35;97349.53;;;13.91;48.50
22181;BME280;11256;50.830;12.834;2023-03-18T22:06:35;97347.88;;;13.81;48.59
22181;BME280;11256;50.830;12.834;2023-03-18T22:11:36;97369.84;;;13.85;48.79
22181;BME280;11256;50.830;12.834;2023-03-18T22:16:36;97376.03;;;13.77;48.79
22181;BME280;11256;50.830;12.834;2023-03-18T22:21:37;97368.09;;;13.67;49.04
22181;BME280;11256;50.830;12.834;2023-03-18T22:26:37;97358.06;;;13.54;49.03
22181;BME280;11256;50.830;12.834;2023-03-18T22:31:38;97364.50;;;13.58;49.12
22181;BME280;11256;50.830;12.834;2023-03-18T22:36:39;97363.50;;;13.54;49.21
22181;BME280;11256;50.830;12.834;2023-03-18T22:41:39;97369.56;;;13.51;49.23
22181;BME280;11256;50.830;12.834;2023-03-18T22:46:39;97362.31;;;13.46;49.39
22181;BME280;11256;50.830;12.834;2023-03-18T22:51:40;97368.19;;;13.40;49.47
22181;BME280;11256;50.830;12.834;2023-03-18T22:56:41;97357.09;;;13.23;49.43
22181;BME280;11256;50.830;12.834;2023-03-18T23:01:41;97354.19;;;13.19;49.72
22181;BME280;11256;50.830;12.834;2023-03-18T23:06:41;97362.34;;;13.19;49.78
22181;BME280;11256;50.830;12.834;2023-03-18T23:11:42;97360.84;;;13.13;49.94
22181;BME280;11256;50.830;12.834;2023-03-18T23:16:44;97361.78;;;13.09;50.10
22181;BME280;11256;50.830;12.834;2023-03-18T23:21:44;97364.59;;;13.04;50.07
22181;BME280;11256;50.830;12.834;2023-03-18T23:26:45;97366.94;;;12.97;50.18
22181;BME280;11256;50.830;12.834;2023-03-18T23:31:45;97364.59;;;12.90;50.21
22181;BME280;11256;50.830;12.834;2023-03-18T23:36:46;97362.06;;;12.80;50.23
22181;BME280;11256;50.830;12.834;2023-03-18T23:41:46;97355.50;;;12.68;50.56
22181;BME280;11256;50.830;12.834;2023-03-18T23:46:46;97372.94;;;12.67;50.57
22181;BME280;11256;50.830;12.834;2023-03-18T23:51:48;97357.72;;;12.52;50.50
22181;BME280;11256;50.830;12.834;2023-03-18T23:56:48;97354.28;;;12.47;50.57
